Time;durP1;ratioP1;P1;durP2;ratioP2;P2;SDS_P1;SDS_P2;PMS_P1;PMS_P2;Temp;Humidity;BMP_temperature;BMP_pressure;BME280_temperature;BME280_humidity;BME280_pressure;Samples;Min_cycle;Max_cycle;Signal;HPM_P1;HPM_P2
2022/03/17 00:00:54;;;;;;;22.13;14.38;;;;;;;;;;5019117;28;20038;-92
2022/03/17 00:03:20;;;;;;;23.30;14.27;;;;;;;;;;5018128;28;20045;-90
2022/03/17 00:05:47;;;;;;;26.25;14.88;;;;;;;;;;5017836;28;20136;-91
2022/03/17 00:08:14;;;;;;;22.63;14.52;;;;;;;;;;5018064;28;20052;-91
2022/03/17 00:10:40;;;;;;;24.13;13.73;;;;;;;;;;5017775;28;20071;-90
2022/03/17 00:13:06;;;;;;;25.48;14.43;;;;;;;;;;5034032;28;20171;-90
2022/03/17 00:15:32;;;;;;;28.60;15.98;;;;;;;;;;5035263;28;20046;-90
2022/03/17 00:17:58;;;;;;;26.42;14.55;;;;;;;;;;5017168;28;20103;-90
2022/03/17 00:20:24;;;;;;;23.80;15.02;;;;;;;;;;5034072;28;20494;-91
2022/03/17 00:22:50;;;;;;;21.45;15.80;;;;;;;;;;5018088;28;20060;-91
2022/03/17 00:25:17;;;;;;;23.52;14.50;;;;;;;;;;5018352;28;20060;-91
2022/03/17 00:27:44;;;;;;;24.58;15.35;;;;;;;;;;5018873;28;20042;-90
2022/03/17 00:30:10;;;;;;;26.17;15.90;;;;;;;;;;5017875;28;20128;-91
2022/03/17 00:32:38;;;;;;;24.17;15.70;;;;;;;;;;5018385;28;20045;-91
2022/03/17 00:37:49;;;;;;;26.52;15.48;;;;;;;;;;5033447;28;20542;-89
2022/03/17 00:40:15;;;;;;;24.15;15.40;;;;;;;;;;5033761;28;20513;-90
2022/03/17 00:42:42;;;;;;;22.17;15.98;;;;;;;;;;5016709;28;20429;-90
2022/03/17 00:45:09;;;;;;;22.48;15.30;;;;;;;;;;5016637;28;20553;-90
2022/03/17 00:47:35;;;;;;;26.80;16.52;;;;;;;;;;5016684;28;20045;-89
2022/03/17 00:50:02;;;;;;;22.85;14.77;;;;;;;;;;5016724;28;20080;-90
2022/03/17 00:52:28;;;;;;;22.05;14.65;;;;;;;;;;5033775;28;20041;-90
2022/03/17 00:54:54;;;;;;;24.13;16.60;;;;;;;;;;5017475;28;20042;-89
2022/03/17 01:08:11;;;;;;;23.10;15.33;;;;;;;;;;4786969;29;20161;-90
2022/03/17 01:10:38;;;;;;;26.52;16.05;;;;;;;;;;4772887;30;20142;-91
2022/03/17 01:13:20;;;;;;;28.98;15.88;;;;;;;;;;4734550;30;20072;-91
2022/03/17 01:15:46;;;;;;;29.50;15.40;;;;;;;;;;4705078;30;20044;-91
2022/03/17 01:18:12;;;;;;;27.17;17.05;;;;;;;;;;4719741;30;20157;-91
2022/03/17 01:20:38;;;;;;;26.52;16.05;;;;;;;;;;4720230;30;20389;-91
2022/03/17 01:23:04;;;;;;;26.05;16.25;;;;;;;;;;4705562;30;20515;-91
2022/03/17 01:25:31;;;;;;;25.25;15.90;;;;;;;;;;4719760;30;20059;-91
2022/03/17 01:27:57;;;;;;;25.65;16.50;;;;;;;;;;4720093;30;20143;-91
2022/03/17 01:30:24;;;;;;;27.67;15.68;;;;;;;;;;4705528;30;20256;-90
2022/03/17 01:32:50;;;;;;;27.95;14.77;;;;;;;;;;4719798;30;20139;-91
2022/03/17 01:35:16;;;;;;;28.13;16.40;;;;;;;;;;4705178;30;20045;-90
2022/03/17 01:37:42;;;;;;;24.48;15.45;;;;;;;;;;4705556;30;20411;-90
2022/03/17 01:40:08;;;;;;;23.60;16.33;;;;;;;;;;4709523;30;20419;-89
2022/03/17 01:42:35;;;;;;;23.73;16.33;;;;;;;;;;4754007;30;20057;-90
2022/03/17 01:45:01;;;;;;;25.15;15.52;;;;;;;;;;4860660;29;20051;-89
2022/03/17 01:47:28;;;;;;;24.23;14.82;;;;;;;;;;4938027;29;20509;-90
2022/03/17 01:49:58;;;;;;;26.58;15.65;;;;;;;;;;4946564;28;20054;-90
2022/03/17 01:52:24;;;;;;;26.52;16.42;;;;;;;;;;4997004;28;20487;-93
2022/03/17 01:54:51;;;;;;;29.60;14.65;;;;;;;;;;4997007;28;20423;-92
2022/03/17 01:57:17;;;;;;;27.95;16.23;;;;;;;;;;5000393;28;20053;-91
2022/03/17 01:59:43;;;;;;;22.80;15.02;;;;;;;;;;5000612;28;20060;-91
2022/03/17 02:02:12;;;;;;;30.70;17.58;;;;;;;;;;5001866;28;20382;-92
2022/03/17 02:04:41;;;;;;;29.60;16.63;;;;;;;;;;5000552;28;20034;-93
2022/03/17 02:07:08;;;;;;;26.55;14.52;;;;;;;;;;5000082;28;20046;-92
2022/03/17 02:09:34;;;;;;;24.52;16.63;;;;;;;;;;5018021;28;20062;-92
2022/03/17 02:14:53;;;;;;;24.98;16.08;;;;;;;;;;5036012;28;20042;-93
2022/03/17 02:17:20;;;;;;;27.02;15.30;;;;;;;;;;5019596;28;20046;-92
2022/03/17 02:19:47;;;;;;;30.73;17.20;;;;;;;;;;5019494;28;20087;-93
2022/03/17 02:22:15;;;;;;;28.55;16.42;;;;;;;;;;5019474;28;20490;-94
2022/03/17 02:27:30;;;;;;;27.70;16.77;;;;;;;;;;5035969;28;20050;-92
2022/03/17 02:29:57;;;;;;;23.70;16.75;;;;;;;;;;5036611;28;20041;-93
2022/03/17 02:32:23;;;;;;;26.55;15.98;;;;;;;;;;5020264;28;20106;-92
2022/03/17 02:34:49;;;;;;;29.02;17.50;;;;;;;;;;5036101;28;20045;-93
2022/03/17 02:37:16;;;;;;;25.85;16.90;;;;;;;;;;5019506;28;20044;-93
2022/03/17 02:39:43;;;;;;;25.55;16.45;;;;;;;;;;5019930;28;20096;-91
2022/03/17 02:42:10;;;;;;;25.25;16.40;;;;;;;;;;5019823;28;20049;-91
2022/03/17 02:44:36;;;;;;;23.60;15.30;;;;;;;;;;5019761;28;20049;-90
2022/03/17 02:47:03;;;;;;;28.05;17.80;;;;;;;;;;5019653;28;20119;-92
2022/03/17 02:49:29;;;;;;;25.83;16.70;;;;;;;;;;5019682;28;20041;-91
2022/03/17 02:51:56;;;;;;;29.08;18.13;;;;;;;;;;5035858;28;20068;-92
2022/03/17 02:54:22;;;;;;;32.72;17.65;;;;;;;;;;5018869;28;20045;-91
2022/03/17 02:56:48;;;;;;;27.75;17.60;;;;;;;;;;5019305;28;20045;-92
2022/03/17 02:59:14;;;;;;;24.48;17.48;;;;;;;;;;5035960;28;20497;-92
2022/03/17 03:01:40;;;;;;;26.58;16.85;;;;;;;;;;5019092;28;20485;-91
2022/03/17 03:04:07;;;;;;;30.50;18.67;;;;;;;;;;5018644;28;20486;-90
2022/03/17 03:06:33;;;;;;;25.05;16.63;;;;;;;;;;5034746;28;20084;-91
2022/03/17 03:08:59;;;;;;;26.58;17.23;;;;;;;;;;5034601;28;20053;-91
2022/03/17 03:11:25;;;;;;;32.42;18.80;;;;;;;;;;5019710;28;20081;-92
2022/03/17 03:13:51;;;;;;;25.90;17.35;;;;;;;;;;5019164;28;20474;-91
2022/03/17 03:16:17;;;;;;;30.70;19.48;;;;;;;;;;5018077;28;20128;-91
2022/03/17 03:18:44;;;;;;;28.67;17.80;;;;;;;;;;5018375;28;20042;-91
2022/03/17 03:21:10;;;;;;;28.63;18.15;;;;;;;;;;5018265;28;20140;-91
2022/03/17 03:23:37;;;;;;;31.52;19.00;;;;;;;;;;5018495;28;20046;-91
2022/03/17 03:26:03;;;;;;;27.05;18.30;;;;;;;;;;5018061;28;20045;-91
2022/03/17 03:28:29;;;;;;;27.27;17.50;;;;;;;;;;5018168;28;20168;-91
2022/03/17 03:30:55;;;;;;;32.20;20.13;;;;;;;;;;5018109;28;20045;-90
2022/03/17 03:33:21;;;;;;;26.58;17.30;;;;;;;;;;5018243;28;20506;-90
2022/03/17 03:38:32;;;;;;;28.55;18.58;;;;;;;;;;5034945;28;20056;-91
2022/03/17 03:40:59;;;;;;;24.60;17.77;;;;;;;;;;5017968;28;20449;-90
2022/03/17 03:43:26;;;;;;;27.83;17.48;;;;;;;;;;5034834;28;20052;-90
2022/03/17 03:45:52;;;;;;;29.77;18.90;;;;;;;;;;5034643;28;20575;-91
2022/03/17 03:48:18;;;;;;;32.45;20.02;;;;;;;;;;5018629;28;20087;-92
2022/03/17 03:50:46;;;;;;;29.27;20.15;;;;;;;;;;5018111;28;20041;-91
2022/03/17 03:53:12;;;;;;;43.90;20.77;;;;;;;;;;5018541;28;20057;-91
2022/03/17 03:55:38;;;;;;;37.28;18.92;;;;;;;;;;5018133;28;20554;-90
2022/03/17 03:58:04;;;;;;;32.00;20.67;;;;;;;;;;5033968;28;20076;-89
2022/03/17 04:02:57;;;;;;;29.65;18.65;;;;;;;;;;5034754;28;20050;-90
2022/03/17 04:05:34;;;;;;;38.58;22.42;;;;;;;;;;5017010;28;20140;-89
2022/03/17 04:08:00;;;;;;;32.60;20.63;;;;;;;;;;5034517;28;20054;-89
2022/03/17 04:10:27;;;;;;;30.67;21.00;;;;;;;;;;5017105;28;20375;-90
2022/03/17 04:12:53;;;;;;;36.40;23.02;;;;;;;;;;5017069;28;20092;-90
2022/03/17 04:15:19;;;;;;;32.78;22.65;;;;;;;;;;5018082;28;20049;-90
2022/03/17 04:17:45;;;;;;;35.67;22.75;;;;;;;;;;5017649;28;20049;-90
2022/03/17 04:20:11;;;;;;;38.28;22.02;;;;;;;;;;5016352;28;20486;-89
2022/03/17 04:22:38;;;;;;;39.47;24.92;;;;;;;;;;5017319;28;20052;-89
2022/03/17 04:25:04;;;;;;;39.00;24.85;;;;;;;;;;5033489;28;20136;-89
2022/03/17 04:27:31;;;;;;;39.70;25.20;;;;;;;;;;5016853;28;20056;-89
2022/03/17 04:29:57;;;;;;;38.40;24.65;;;;;;;;;;5018628;28;20052;-89
2022/03/17 04:32:23;;;;;;;40.30;25.23;;;;;;;;;;5017377;28;20457;-89
2022/03/17 04:34:49;;;;;;;40.35;25.50;;;;;;;;;;5034489;28;20041;-89
2022/03/17 04:37:15;;;;;;;39.95;24.95;;;;;;;;;;5033638;28;20410;-89
2022/03/17 04:39:41;;;;;;;35.08;24.20;;;;;;;;;;5017590;28;20049;-89
2022/03/17 04:42:08;;;;;;;40.15;26.17;;;;;;;;;;5017411;28;20049;-90
2022/03/17 04:44:35;;;;;;;43.95;27.05;;;;;;;;;;5033903;28;20057;-90
2022/03/17 04:47:01;;;;;;;46.45;27.25;;;;;;;;;;5017859;28;20053;-90
2022/03/17 04:49:27;;;;;;;39.15;25.20;;;;;;;;;;5017278;28;20372;-89
2022/03/17 04:51:53;;;;;;;43.08;26.95;;;;;;;;;;5016734;28;20394;-90
2022/03/17 04:54:20;;;;;;;45.78;28.42;;;;;;;;;;5016676;28;20049;-90
2022/03/17 04:56:46;;;;;;;35.95;21.75;;;;;;;;;;5017147;28;20084;-90
2022/03/17 04:59:12;;;;;;;17.65;12.13;;;;;;;;;;5032985;28;20513;-89
2022/03/17 05:01:38;;;;;;;11.93;8.38;;;;;;;;;;5017133;28;20079;-88
2022/03/17 05:04:04;;;;;;;10.10;7.22;;;;;;;;;;5033151;28;20050;-88
2022/03/17 05:06:30;;;;;;;7.25;5.70;;;;;;;;;;5016300;28;20506;-88
2022/03/17 05:08:59;;;;;;;9.75;5.95;;;;;;;;;;5016442;28;20414;-88
2022/03/17 05:11:25;;;;;;;7.82;6.18;;;;;;;;;;5034090;28;20434;-88
2022/03/17 05:13:52;;;;;;;6.50;5.57;;;;;;;;;;5034670;28;20056;-89
2022/03/17 05:16:18;;;;;;;10.30;6.82;;;;;;;;;;5016449;28;20200;-88
2022/03/17 05:18:44;;;;;;;9.93;7.20;;;;;;;;;;5015954;28;20575;-88
2022/03/17 05:21:10;;;;;;;6.68;5.60;;;;;;;;;;5016188;28;20045;-88
2022/03/17 05:23:38;;;;;;;7.28;5.47;;;;;;;;;;5032859;28;20056;-87
2022/03/17 05:26:04;;;;;;;9.25;6.13;;;;;;;;;;5033782;28;20088;-87
2022/03/17 05:28:30;;;;;;;8.23;6.25;;;;;;;;;;5018093;28;20053;-88
2022/03/17 05:30:57;;;;;;;9.75;5.82;;;;;;;;;;5018840;28;20063;-87
2022/03/17 05:33:23;;;;;;;8.20;6.35;;;;;;;;;;5037912;28;20053;-87
2022/03/17 05:35:49;;;;;;;7.38;6.60;;;;;;;;;;5020282;28;20041;-88
2022/03/17 05:38:16;;;;;;;17.33;8.18;;;;;;;;;;5020881;28;20052;-88
2022/03/17 05:40:42;;;;;;;20.23;9.80;;;;;;;;;;5020759;28;20048;-88
2022/03/17 05:43:09;;;;;;;23.17;8.85;;;;;;;;;;5038509;28;20046;-88
2022/03/17 05:45:37;;;;;;;20.30;9.32;;;;;;;;;;5036906;28;20046;-88
2022/03/17 05:48:04;;;;;;;17.73;10.50;;;;;;;;;;5038333;28;20084;-88
2022/03/17 05:50:32;;;;;;;18.20;9.15;;;;;;;;;;5037044;28;20091;-87
2022/03/17 05:52:58;;;;;;;16.70;8.68;;;;;;;;;;5038952;28;20037;-86
2022/03/17 05:55:25;;;;;;;18.42;7.85;;;;;;;;;;5036263;28;20053;-87
2022/03/17 05:57:52;;;;;;;15.93;6.13;;;;;;;;;;5021247;28;20390;-87
2022/03/17 06:00:20;;;;;;;13.80;5.80;;;;;;;;;;5036923;28;20103;-87
2022/03/17 06:02:46;;;;;;;10.90;5.00;;;;;;;;;;5020005;28;20045;-87
2022/03/17 06:05:13;;;;;;;9.18;5.13;;;;;;;;;;5035884;28;20049;-87
2022/03/17 06:07:40;;;;;;;11.10;5.63;;;;;;;;;;5037782;28;20045;-88
2022/03/17 06:10:07;;;;;;;14.82;5.57;;;;;;;;;;5035692;28;20498;-87
2022/03/17 06:12:34;;;;;;;14.82;7.18;;;;;;;;;;5037776;28;20051;-87
2022/03/17 06:15:00;;;;;;;9.73;5.18;;;;;;;;;;5018955;28;20046;-87
2022/03/17 06:17:42;;;;;;;7.75;4.80;;;;;;;;;;5037351;28;20052;-86
2022/03/17 06:20:10;;;;;;;10.95;4.30;;;;;;;;;;5035785;28;20050;-86
2022/03/17 06:22:37;;;;;;;11.25;4.03;;;;;;;;;;5019586;28;20486;-86
2022/03/17 06:25:04;;;;;;;9.20;3.58;;;;;;;;;;5036959;28;20045;-87
2022/03/17 06:27:30;;;;;;;8.68;3.97;;;;;;;;;;5036659;28;20545;-87
2022/03/17 06:29:56;;;;;;;16.58;4.43;;;;;;;;;;5036261;28;20049;-87
2022/03/17 06:32:24;;;;;;;9.48;4.13;;;;;;;;;;5034943;28;20111;-88
2022/03/17 06:34:50;;;;;;;11.02;3.75;;;;;;;;;;5035840;28;20053;-87
2022/03/17 06:37:16;;;;;;;6.10;2.55;;;;;;;;;;5018610;28;20498;-86
2022/03/17 06:39:42;;;;;;;7.18;3.13;;;;;;;;;;5018293;28;20486;-87
2022/03/17 06:42:08;;;;;;;7.30;2.58;;;;;;;;;;5017987;28;20395;-86
2022/03/17 06:44:34;;;;;;;4.07;2.05;;;;;;;;;;5035287;28;20046;-87
2022/03/17 06:47:00;;;;;;;4.38;1.85;;;;;;;;;;5035093;28;20514;-86
2022/03/17 06:49:26;;;;;;;5.60;1.83;;;;;;;;;;5018928;28;20139;-87
2022/03/17 06:51:52;;;;;;;6.68;2.75;;;;;;;;;;5018647;28;20052;-87
2022/03/17 06:54:18;;;;;;;6.78;2.30;;;;;;;;;;5018409;28;20126;-90
2022/03/17 06:56:44;;;;;;;11.15;3.80;;;;;;;;;;5018087;28;20107;-87
2022/03/17 06:59:10;;;;;;;5.68;1.70;;;;;;;;;;5018906;28;20053;-86
2022/03/17 07:01:36;;;;;;;6.30;2.10;;;;;;;;;;5018192;28;20041;-87
2022/03/17 07:04:02;;;;;;;6.88;2.40;;;;;;;;;;5034952;28;20044;-87
2022/03/17 07:06:28;;;;;;;2.67;1.88;;;;;;;;;;5018762;28;20144;-89
2022/03/17 07:08:54;;;;;;;8.55;2.30;;;;;;;;;;5017998;28;20522;-87
2022/03/17 07:11:21;;;;;;;13.70;2.22;;;;;;;;;;5017909;28;20096;-87
2022/03/17 07:13:48;;;;;;;8.00;2.25;;;;;;;;;;5034516;28;20077;-87
2022/03/17 07:16:14;;;;;;;7.00;2.33;;;;;;;;;;5034466;28;20075;-87
2022/03/17 07:18:40;;;;;;;12.18;3.78;;;;;;;;;;5017807;28;20136;-87
2022/03/17 07:21:07;;;;;;;11.65;3.10;;;;;;;;;;5034402;28;20092;-87
2022/03/17 07:23:33;;;;;;;6.88;2.42;;;;;;;;;;5018007;28;20502;-87
2022/03/17 07:25:59;;;;;;;10.95;2.78;;;;;;;;;;5018236;28;20104;-87
2022/03/17 07:28:25;;;;;;;6.03;2.03;;;;;;;;;;5017742;28;20053;-89
2022/03/17 07:30:52;;;;;;;16.33;2.88;;;;;;;;;;5018064;28;20410;-86
2022/03/17 07:33:18;;;;;;;6.95;2.53;;;;;;;;;;5018288;28;20037;-87
2022/03/17 07:35:47;;;;;;;8.98;2.10;;;;;;;;;;5033878;28;20492;-90
2022/03/17 07:38:13;;;;;;;14.73;2.95;;;;;;;;;;5017923;28;20045;-93
2022/03/17 07:40:40;;;;;;;8.68;2.40;;;;;;;;;;5033404;28;20075;-91
2022/03/17 07:43:10;;;;;;;7.40;2.15;;;;;;;;;;5017694;28;20042;-92
2022/03/17 07:45:36;;;;;;;3.80;1.70;;;;;;;;;;5017333;28;20051;-90
2022/03/17 07:48:05;;;;;;;8.13;2.65;;;;;;;;;;5033426;28;20498;-91
2022/03/17 07:50:32;;;;;;;14.02;2.47;;;;;;;;;;5033729;28;20050;-89
2022/03/17 07:52:59;;;;;;;15.68;2.38;;;;;;;;;;5017014;28;20482;-90
2022/03/17 07:55:25;;;;;;;9.07;2.42;;;;;;;;;;5033646;28;20041;-90
2022/03/17 07:57:51;;;;;;;8.15;2.95;;;;;;;;;;5033544;28;20076;-89
2022/03/17 08:00:18;;;;;;;11.55;2.85;;;;;;;;;;5033605;28;20045;-88
2022/03/17 08:02:44;;;;;;;11.18;2.42;;;;;;;;;;5017355;28;20045;-89
2022/03/17 08:05:10;;;;;;;13.20;2.78;;;;;;;;;;5017271;28;20042;-94
2022/03/17 08:07:36;;;;;;;10.60;2.95;;;;;;;;;;5017402;28;20057;-94
2022/03/17 08:10:03;;;;;;;21.42;3.33;;;;;;;;;;5033533;28;20053;-89
2022/03/17 08:12:31;;;;;;;17.33;2.25;;;;;;;;;;5033531;28;20060;-91
2022/03/17 08:14:58;;;;;;;10.57;2.40;;;;;;;;;;5034455;28;20096;-92
2022/03/17 08:17:28;;;;;;;9.35;2.20;;;;;;;;;;5035248;28;20053;-91
2022/03/17 08:19:55;;;;;;;13.52;2.63;;;;;;;;;;5017514;28;20041;-91
2022/03/17 08:22:21;;;;;;;10.80;3.15;;;;;;;;;;5018503;28;20049;-91
2022/03/17 08:24:48;;;;;;;12.38;3.25;;;;;;;;;;5034906;28;20051;-92
2022/03/17 08:27:14;;;;;;;9.48;2.17;;;;;;;;;;5033773;28;20049;-87
2022/03/17 08:29:40;;;;;;;5.88;1.92;;;;;;;;;;5018522;28;20465;-88
2022/03/17 08:32:06;;;;;;;8.65;2.78;;;;;;;;;;5034170;28;20095;-91
2022/03/17 08:34:33;;;;;;;8.00;1.92;;;;;;;;;;5034366;28;20051;-88
2022/03/17 08:36:59;;;;;;;5.28;2.10;;;;;;;;;;5018696;28;20056;-87
2022/03/17 08:39:26;;;;;;;6.03;2.13;;;;;;;;;;5017338;28;20042;-87
2022/03/17 08:41:52;;;;;;;14.80;3.03;;;;;;;;;;5034088;28;20462;-87
2022/03/17 08:44:18;;;;;;;14.32;1.92;;;;;;;;;;5018412;28;20045;-88
2022/03/17 08:49:29;;;;;;;8.30;2.22;;;;;;;;;;5034555;28;20046;-87
2022/03/17 08:51:56;;;;;;;10.48;2.55;;;;;;;;;;5034259;28;20053;-89
2022/03/17 08:54:24;;;;;;;9.20;2.40;;;;;;;;;;5034560;28;20042;-89
2022/03/17 08:56:51;;;;;;;13.75;3.30;;;;;;;;;;5035706;28;20085;-87
2022/03/17 08:59:17;;;;;;;7.03;1.73;;;;;;;;;;5017358;28;20049;-87
2022/03/17 09:01:43;;;;;;;13.77;2.38;;;;;;;;;;5018798;28;20091;-88
2022/03/17 09:04:11;;;;;;;5.30;2.20;;;;;;;;;;5017031;28;20109;-89
2022/03/17 09:06:38;;;;;;;9.52;1.73;;;;;;;;;;5037337;28;20049;-90
2022/03/17 09:09:04;;;;;;;12.63;4.13;;;;;;;;;;5021238;28;20092;-88
2022/03/17 09:11:34;;;;;;;16.13;2.15;;;;;;;;;;5021236;28;20056;-88
2022/03/17 09:14:00;;;;;;;10.70;2.53;;;;;;;;;;5038380;28;20068;-88
2022/03/17 09:16:27;;;;;;;10.02;3.08;;;;;;;;;;5021458;28;20045;-87
2022/03/17 09:18:53;;;;;;;13.98;3.17;;;;;;;;;;5038586;28;20080;-87
2022/03/17 09:21:19;;;;;;;11.48;3.95;;;;;;;;;;5020568;28;20045;-89
2022/03/17 09:23:45;;;;;;;27.10;2.72;;;;;;;;;;5036455;28;20045;-87
2022/03/17 09:26:11;;;;;;;9.43;2.58;;;;;;;;;;5036562;28;20049;-89
2022/03/17 09:28:37;;;;;;;5.97;2.17;;;;;;;;;;5020729;28;20111;-89
2022/03/17 09:31:03;;;;;;;9.80;2.40;;;;;;;;;;5036782;28;20049;-88
2022/03/17 09:33:29;;;;;;;15.18;3.92;;;;;;;;;;5038708;28;20064;-89
2022/03/17 09:35:56;;;;;;;9.65;3.05;;;;;;;;;;5021248;28;20095;-89
2022/03/17 09:38:22;;;;;;;8.80;2.85;;;;;;;;;;5036793;28;20041;-88
2022/03/17 09:40:48;;;;;;;11.70;1.92;;;;;;;;;;5036700;28;20084;-88
2022/03/17 09:43:28;;;;;;;10.38;2.70;;;;;;;;;;5019868;28;20049;-87
2022/03/17 09:45:55;;;;;;;5.97;2.05;;;;;;;;;;5020027;28;20044;-88
2022/03/17 09:48:22;;;;;;;10.23;2.38;;;;;;;;;;5021002;28;20141;-88
2022/03/17 09:50:50;;;;;;;11.93;2.95;;;;;;;;;;5021002;28;20087;-88
2022/03/17 09:53:16;;;;;;;5.97;2.05;;;;;;;;;;5020620;28;20114;-88
2022/03/17 09:55:43;;;;;;;8.65;2.25;;;;;;;;;;5037367;28;20041;-88
2022/03/17 09:58:10;;;;;;;10.48;2.75;;;;;;;;;;5036638;28;20097;-88
2022/03/17 10:00:48;;;;;;;5.03;2.17;;;;;;;;;;5037714;28;20092;-88
2022/03/17 10:03:16;;;;;;;9.27;4.30;;;;;;;;;;5020060;28;20072;-88
2022/03/17 10:05:43;;;;;;;11.40;1.90;;;;;;;;;;5037115;28;20056;-88
2022/03/17 10:08:09;;;;;;;8.25;2.53;;;;;;;;;;5036065;28;20144;-88
2022/03/17 10:10:39;;;;;;;11.73;1.85;;;;;;;;;;5019297;28;20057;-88
2022/03/17 10:13:06;;;;;;;6.18;2.42;;;;;;;;;;5036432;28;20142;-88
2022/03/17 10:15:33;;;;;;;12.25;2.83;;;;;;;;;;5019586;28;20044;-87
2022/03/17 10:18:17;;;;;;;7.50;2.88;;;;;;;;;;5036372;28;20406;-88
2022/03/17 10:20:43;;;;;;;5.10;2.38;;;;;;;;;;5037503;28;20044;-87
2022/03/17 10:23:11;;;;;;;10.02;2.28;;;;;;;;;;5036091;28;20080;-87
2022/03/17 10:25:37;;;;;;;9.02;1.90;;;;;;;;;;5036387;28;20072;-87
2022/03/17 10:28:04;;;;;;;11.40;2.17;;;;;;;;;;5036102;28;20108;-88
2022/03/17 10:30:35;;;;;;;7.45;1.98;;;;;;;;;;5037226;28;20042;-88
2022/03/17 10:33:02;;;;;;;8.13;2.38;;;;;;;;;;5019117;28;20148;-88
2022/03/17 10:35:34;;;;;;;11.52;2.50;;;;;;;;;;5035595;28;20041;-88
2022/03/17 10:38:19;;;;;;;9.30;2.50;;;;;;;;;;5036100;28;20057;-87
2022/03/17 10:41:00;;;;;;;10.00;2.55;;;;;;;;;;5035738;28;20041;-87
2022/03/17 10:43:29;;;;;;;7.18;1.80;;;;;;;;;;5036285;28;20128;-88
2022/03/17 10:46:13;;;;;;;5.95;2.85;;;;;;;;;;5018669;28;20105;-87
2022/03/17 10:48:59;;;;;;;7.75;2.30;;;;;;;;;;5018711;28;20056;-87
2022/03/17 10:51:32;;;;;;;6.05;2.05;;;;;;;;;;5019293;28;20042;-88
2022/03/17 10:54:04;;;;;;;9.63;1.63;;;;;;;;;;5036516;28;20045;-87
2022/03/17 10:56:30;;;;;;;15.40;2.72;;;;;;;;;;5036115;28;20049;-88
2022/03/17 10:58:59;;;;;;;13.07;2.63;;;;;;;;;;5018531;28;20084;-86
2022/03/17 11:01:48;;;;;;;8.88;2.30;;;;;;;;;;5034885;28;20050;-89
2022/03/17 11:04:15;;;;;;;9.63;2.47;;;;;;;;;;5014421;28;20462;-86
2022/03/17 11:06:41;;;;;;;12.38;2.40;;;;;;;;;;5013745;28;20095;-88
2022/03/17 11:09:10;;;;;;;7.15;2.58;;;;;;;;;;5013467;28;20085;-86
2022/03/17 11:11:37;;;;;;;17.88;2.85;;;;;;;;;;4981674;28;20052;-87
2022/03/17 11:14:04;;;;;;;6.20;2.47;;;;;;;;;;4982077;28;20049;-86
2022/03/17 11:16:54;;;;;;;7.82;2.10;;;;;;;;;;4982493;28;20058;-87
2022/03/17 11:19:21;;;;;;;7.85;2.95;;;;;;;;;;5014326;28;20050;-86
2022/03/17 11:21:49;;;;;;;7.28;2.08;;;;;;;;;;5014314;28;20100;-84
2022/03/17 11:24:19;;;;;;;7.88;2.60;;;;;;;;;;4981782;28;20430;-85
2022/03/17 11:26:46;;;;;;;9.85;2.42;;;;;;;;;;5014062;28;20045;-85
2022/03/17 11:29:17;;;;;;;11.10;2.47;;;;;;;;;;5013540;28;20060;-85
2022/03/17 11:31:53;;;;;;;6.93;2.30;;;;;;;;;;4981056;28;20049;-87
2022/03/17 11:34:37;;;;;;;11.60;2.17;;;;;;;;;;4997633;28;20062;-86
2022/03/17 11:37:15;;;;;;;16.17;3.67;;;;;;;;;;5013876;28;20134;-86
2022/03/17 11:40:09;;;;;;;4.85;2.05;;;9.90;99.90;;;;;;4997891;28;20132;-86
2022/03/17 11:42:35;;;;;;;7.72;2.40;;;;;;;;;;5034946;28;20102;-86
2022/03/17 11:45:10;;;;;;;4.95;1.80;;;;;;;;;;5034764;28;20046;-87
2022/03/17 11:47:37;;;;;;;9.77;3.83;;;;;;;;;;5035518;28;20127;-86
2022/03/17 11:50:22;;;;;;;6.25;2.10;;;;;;;;;;5019755;28;20040;-86
2022/03/17 11:52:57;;;;;;;11.25;2.25;;;;;;;;;;5036281;28;20045;-86
2022/03/17 11:55:41;;;;;;;6.20;2.08;;;10.00;99.90;;;;;;5035980;28;20490;-86
2022/03/17 11:58:16;;;;;;;12.82;3.20;;;;;;;;;;5035649;28;20038;-86
2022/03/17 12:00:45;;;;;;;11.50;2.92;;;;;;;;;;5035459;28;20096;-86
2022/03/17 12:03:11;;;;;;;10.48;2.70;;;;;;;;;;5036621;28;20049;-86
2022/03/17 12:05:43;;;;;;;11.43;3.00;;;;;;;;;;5035934;28;20049;-86
2022/03/17 12:08:16;;;;;;;12.88;2.28;;;;;;;;;;5018011;28;20049;-86
2022/03/17 12:11:06;;;;;;;15.27;2.92;;;10.10;99.90;;;;;;5054350;28;20110;-86
2022/03/17 12:13:34;;;;;;;12.20;3.58;;;;;;;;;;5021827;28;20075;-86
2022/03/17 12:16:01;;;;;;;13.30;2.58;;;;;;;;;;5055802;28;20053;-86
2022/03/17 12:18:28;;;;;;;8.80;2.63;;;;;;;;;;5054997;28;20041;-86
2022/03/17 12:20:55;;;;;;;6.60;2.28;;;;;;;;;;5055792;28;20098;-86
2022/03/17 12:23:44;;;;;;;7.50;2.30;;;10.20;99.90;;;;;;5056454;28;20067;-87
2022/03/17 12:26:10;;;;;;;11.50;2.92;;;;;;;;;;5022461;28;20053;-86
2022/03/17 12:28:44;;;;;;;13.85;2.88;;;;;;;;;;5037953;28;20055;-87
2022/03/17 12:31:10;;;;;;;18.65;4.47;;;;;;;;;;5055430;28;20509;-87
2022/03/17 12:33:38;;;;;;;13.55;5.20;;;;;;;;;;5038246;28;20053;-86
2022/03/17 12:36:05;;;;;;;9.70;2.25;;;;;;;;;;5038597;28;20539;-86
2022/03/17 12:38:32;;;;;;;12.63;2.25;;;;;;;;;;5037728;28;20052;-86
2022/03/17 12:41:00;;;;;;;5.25;2.13;;;;;;;;;;5054943;28;20049;-87
2022/03/17 12:43:27;;;;;;;6.88;2.92;;;;;;;;;;5055834;28;20108;-87
2022/03/17 12:45:53;;;;;;;17.35;2.38;;;;;;;;;;5055331;28;20375;-86
2022/03/17 12:48:20;;;;;;;13.25;2.70;;;;;;;;;;5054593;28;20486;-86
2022/03/17 12:50:46;;;;;;;8.48;2.10;;;;;;;;;;5038410;28;20049;-86
2022/03/17 12:53:13;;;;;;;9.63;2.67;;;;;;;;;;5037918;28;20402;-86
2022/03/17 12:55:39;;;;;;;14.85;3.78;;;;;;;;;;5021836;28;20040;-86
2022/03/17 12:58:05;;;;;;;11.05;2.65;;;;;;;;;;5038157;28;20126;-86
2022/03/17 13:00:32;;;;;;;6.20;2.30;;;;;;;;;;5037880;28;20112;-88
2022/03/17 13:02:58;;;;;;;7.00;2.13;;;;;;;;;;5055360;28;20120;-85
2022/03/17 13:08:14;;;;;;;9.02;2.40;;;;;;;;;;5037914;28;20093;-92
2022/03/17 13:16:14;;;;;;;8.20;2.15;;;;;;;;;;5054749;28;20049;-94
2022/03/17 13:18:43;;;;;;;11.40;1.85;;;;;;;;;;5054521;28;20037;-84
2022/03/17 13:21:10;;;;;;;6.97;2.40;;;;;;;;;;5037169;28;20481;-86
2022/03/17 13:23:37;;;;;;;7.32;2.22;;;;;;;;;;5054314;28;20132;-85
2022/03/17 13:26:03;;;;;;;2.97;2.03;;;;;;;;;;5038514;28;20073;-85
2022/03/17 13:28:29;;;;;;;11.77;1.83;;;;;;;;;;5054462;28;20051;-85
2022/03/17 13:30:56;;;;;;;4.00;1.65;;;;;;;;;;5036529;28;20140;-85
2022/03/17 13:33:28;;;;;;;9.15;2.03;;;;;;;;;;5055857;28;20045;-94
2022/03/17 13:35:54;;;;;;;9.45;1.85;;;;;;;;;;5038130;28;20127;-92
2022/03/17 13:38:21;;;;;;;3.33;1.10;;;;;;;;;;5040468;28;20044;-92
2022/03/17 13:40:49;;;;;;;4.90;2.15;;;;;;;;;;5022742;28;20041;-90
2022/03/17 13:43:18;;;;;;;11.73;1.60;;;;;;;;;;5037296;28;20045;-89
2022/03/17 13:45:54;;;;;;;3.33;1.27;;;;;;;;;;5021649;28;20040;-87
2022/03/17 13:48:21;;;;;;;5.30;1.77;;;;;;;;;;5054858;28;20490;-86
2022/03/17 13:50:50;;;;;;;4.22;1.50;;;;;;;;;;5055673;28;20045;-86
2022/03/17 13:53:21;;;;;;;1.92;1.48;;;;;;;;;;5040522;28;20367;-85
2022/03/17 13:55:54;;;;;;;3.75;1.40;;;;;;;;;;5040128;28;20045;-86
2022/03/17 13:58:31;;;;;;;4.22;1.75;;;;;;;;;;5039337;28;20044;-87
2022/03/17 14:01:10;;;;;;;4.95;1.55;;;;;;;;;;5023566;28;20045;-87
2022/03/17 14:03:38;;;;;;;4.60;1.35;;;;;;;;;;5039835;28;20052;-86
2022/03/17 14:06:04;;;;;;;15.93;2.42;;;;;;;;;;5023740;28;20485;-86
2022/03/17 14:08:32;;;;;;;3.95;1.73;;;;;;;;;;5023018;28;20037;-89
2022/03/17 14:10:59;;;;;;;6.28;1.65;;;;;;;;;;5024196;28;20091;-88
2022/03/17 14:13:25;;;;;;;10.15;2.03;;;;;;;;;;5042296;28;20041;-94
2022/03/17 14:15:52;;;;;;;3.92;1.27;;;;;;;;;;5024936;28;20132;-91
2022/03/17 14:18:21;;;;;;;5.15;2.35;;;;;;;;;;5023427;28;20052;-86
2022/03/17 14:20:47;;;;;;;11.10;2.03;;;;;;;;;;5041039;28;20044;-86
2022/03/17 14:25:58;;;;;;;4.22;1.42;;;;;;;;;;5058214;28;20052;-86
2022/03/17 14:28:24;;;;;;;6.88;2.22;;;;;;;;;;5057880;28;20052;-87
2022/03/17 14:30:50;;;;;;;2.97;1.40;;;;;;;;;;5040659;28;20041;-95
2022/03/17 14:33:17;;;;;;;4.10;1.55;;;;;;;;;;5039577;28;20508;-93
2022/03/17 14:35:43;;;;;;;5.65;1.67;;;;;;;;;;5024995;28;20076;-92
2022/03/17 14:38:09;;;;;;;1.83;1.38;;;;;;;;;;5042771;28;20131;-88
2022/03/17 14:40:35;;;;;;;7.22;1.55;;;;;;;;;;5039273;28;20103;-89
2022/03/17 14:43:01;;;;;;;5.43;1.73;;;;;;;;;;5038831;28;20056;-90
2022/03/17 14:45:27;;;;;;;4.40;1.65;;;;;;;;;;5039346;28;20037;-91
2022/03/17 14:47:53;;;;;;;8.30;1.98;;;;;;;;;;5038623;28;20049;-91
2022/03/17 14:50:20;;;;;;;4.75;1.52;;;;;;;;;;5022856;28;20494;-88
2022/03/17 14:52:47;;;;;;;9.75;1.55;;;;;;;;;;5022474;28;20080;-88
2022/03/17 14:55:13;;;;;;;5.88;1.50;;;;;;;;;;5038974;28;20045;-88
2022/03/17 14:57:42;;;;;;;6.00;1.55;;;;;;;;;;5038925;28;20470;-87
2022/03/17 15:00:09;;;;;;;5.53;1.58;;;;;;;;;;5056519;28;20409;-87
2022/03/17 15:02:35;;;;;;;3.17;1.67;;;;;;;;;;5038837;28;20044;-88
2022/03/17 15:05:01;;;;;;;4.22;1.40;;;;;;;;;;5021631;28;20048;-93
2022/03/17 15:07:29;;;;;;;3.92;0.98;;;;;;;;;;5056465;28;20401;-87
2022/03/17 15:09:55;;;;;;;3.70;1.20;;;;;;;;;;5021735;28;20076;-93